createdAt,value
2023-06-07T00:02:13.313Z,70.66
2023-06-07T00:05:22.319Z,70.77
2023-06-07T00:08:24.498Z,70.79
2023-06-07T00:11:26.135Z,70.74
2023-06-07T00:14:27.977Z,70.53
2023-06-07T00:17:29.887Z,70.67
2023-06-07T00:20:32.227Z,70.72
2023-06-07T00:23:36.048Z,70.78
2023-06-07T00:26:39.779Z,70.92
2023-06-07T00:29:41.634Z,71.01
2023-06-07T00:32:44.655Z,71.16
2023-06-07T00:35:49.076Z,71.28
2023-06-07T00:38:51.115Z,71.35
2023-06-07T00:41:53.265Z,71.43
2023-06-07T00:44:55.031Z,71.51
2023-06-07T00:47:57.349Z,71.28
2023-06-07T00:50:59.127Z,71.29
2023-06-07T00:54:05.876Z,71.38
2023-06-07T00:57:08.266Z,71.46
2023-06-07T01:00:13.773Z,71.50
2023-06-07T01:03:15.809Z,71.54
2023-06-07T01:06:17.923Z,71.60
2023-06-07T01:09:23.260Z,71.66
2023-06-07T01:12:25.989Z,71.68
2023-06-07T01:15:30.259Z,71.78
2023-06-07T01:18:33.422Z,71.85
2023-06-07T01:21:38.190Z,71.95
2023-06-07T01:24:43.596Z,71.97
2023-06-07T01:27:46.577Z,72.07
2023-06-07T01:30:49.295Z,72.14
2023-06-07T01:33:53.502Z,72.21
2023-06-07T01:36:56.449Z,72.21
2023-06-07T01:39:58.851Z,72.26
2023-06-07T01:43:01.222Z,72.31
2023-06-07T01:46:05.300Z,72.34
2023-06-07T01:49:07.132Z,72.39
2023-06-07T01:52:08.965Z,72.40
2023-06-07T01:55:11.017Z,72.51
2023-06-07T01:58:24.148Z,72.57
2023-06-07T02:01:34.360Z,72.56
2023-06-07T02:04:43.577Z,72.58
2023-06-07T02:07:51.154Z,72.56
2023-06-07T02:10:54.623Z,72.51
2023-06-07T02:13:56.681Z,72.56
2023-06-07T02:16:58.628Z,72.55
2023-06-07T02:20:00.569Z,72.66
2023-06-07T02:23:02.869Z,72.62
2023-06-07T02:26:05.096Z,72.69
2023-06-07T02:29:06.752Z,72.70
2023-06-07T02:32:08.884Z,72.61
2023-06-07T02:35:10.564Z,72.73
2023-06-07T02:38:12.277Z,72.64
2023-06-07T02:41:14.018Z,72.72
2023-06-07T02:44:15.765Z,72.78
2023-06-07T02:47:17.594Z,72.86
2023-06-07T02:50:19.659Z,72.86
2023-06-07T02:53:22.876Z,72.86
2023-06-07T02:56:24.669Z,72.97
2023-06-07T02:59:27.473Z,72.84
2023-06-07T03:02:29.509Z,72.85
2023-06-07T03:05:31.782Z,72.94
2023-06-07T03:08:37.412Z,72.78
2023-06-07T03:11:40.038Z,72.83
2023-06-07T03:14:42.993Z,72.95
2023-06-07T03:17:46.395Z,73.05
2023-06-07T03:20:49.047Z,73.08
2023-06-07T03:23:53.681Z,73.23
2023-06-07T03:26:58.234Z,73.26
2023-06-07T03:30:00.471Z,73.34
2023-06-07T03:33:02.709Z,73.46
2023-06-07T03:36:07.929Z,73.31
2023-06-07T03:39:10.308Z,73.29
2023-06-07T03:42:12.395Z,73.41
2023-06-07T03:45:15.380Z,73.33
2023-06-07T03:48:17.646Z,73.39
2023-06-07T03:51:19.552Z,73.54
2023-06-07T03:54:21.398Z,73.54
2023-06-07T03:57:23.685Z,73.52
2023-06-07T04:00:27.865Z,73.58
2023-06-07T04:03:33.336Z,73.68
2023-06-07T04:06:36.984Z,73.62
2023-06-07T04:09:40.547Z,73.67
2023-06-07T04:12:44.039Z,73.74
2023-06-07T04:15:46.385Z,73.60
2023-06-07T04:18:48.436Z,73.58
2023-06-07T04:21:50.441Z,73.62
2023-06-07T04:24:52.338Z,73.51
2023-06-07T04:27:59.885Z,73.41
2023-06-07T04:31:02.657Z,73.75
2023-06-07T04:34:06.286Z,73.86
2023-06-07T04:37:09.753Z,73.79
2023-06-07T04:40:14.628Z,73.77
2023-06-07T04:43:18.878Z,73.87
2023-06-07T04:46:21.431Z,73.82
2023-06-07T04:49:23.869Z,73.82
2023-06-07T04:52:27.676Z,73.78
2023-06-07T04:55:36.155Z,73.57
2023-06-07T04:58:42.094Z,73.42
2023-06-07T05:01:45.691Z,73.55
2023-06-07T05:04:47.725Z,73.47
2023-06-07T05:07:50.352Z,73.42
2023-06-07T05:10:52.083Z,73.34
2023-06-07T05:13:56.560Z,73.48
2023-06-07T05:17:01.828Z,73.35
2023-06-07T05:20:12.586Z,73.38
2023-06-07T05:23:17.195Z,73.39
2023-06-07T05:26:22.893Z,73.20
2023-06-07T05:29:24.795Z,73.06
2023-06-07T05:32:26.890Z,73.16
2023-06-07T05:35:29.120Z,73.20
2023-06-07T05:38:32.250Z,73.22
2023-06-07T05:41:35.962Z,73.16
2023-06-07T05:44:38.165Z,73.20
2023-06-07T05:47:41.374Z,73.16
2023-06-07T05:50:43.315Z,73.11
2023-06-07T05:53:45.113Z,72.95
2023-06-07T05:56:49.006Z,72.94
2023-06-07T05:59:51.377Z,73.10
2023-06-07T06:02:57.111Z,73.04
2023-06-07T06:05:59.038Z,72.81
2023-06-07T06:09:01.150Z,72.94
2023-06-07T06:12:03.479Z,72.89
2023-06-07T06:15:06.334Z,72.80
2023-06-07T06:18:08.222Z,72.58
2023-06-07T06:21:10.194Z,72.48
2023-06-07T06:24:11.985Z,72.49
2023-06-07T06:27:13.842Z,72.49
2023-06-07T06:30:17.736Z,72.47
2023-06-07T06:33:19.633Z,72.22
2023-06-07T06:36:21.420Z,72.18
2023-06-07T06:39:26.478Z,72.18
2023-06-07T06:42:28.303Z,72.01
2023-06-07T06:45:58.893Z,71.83
2023-06-07T06:49:11.359Z,72.04
2023-06-07T06:55:27.144Z,71.90
2023-06-07T06:58:32.068Z,71.80
2023-06-07T07:01:53.419Z,71.68
2023-06-07T07:04:56.945Z,72.04
2023-06-07T07:08:00.053Z,71.75
2023-06-07T07:11:03.839Z,71.67
2023-06-07T07:14:06.959Z,71.51
2023-06-07T07:17:10.056Z,71.48
2023-06-07T07:20:13.921Z,70.81
2023-06-07T07:23:20.960Z,70.26
2023-06-07T07:26:24.373Z,69.81
2023-06-07T07:29:29.007Z,69.52
2023-06-07T07:32:34.118Z,69.53
2023-06-07T07:35:37.473Z,69.32
2023-06-07T07:38:41.649Z,69.20
2023-06-07T07:41:45.051Z,69.42
2023-06-07T07:44:48.201Z,69.62
2023-06-07T07:47:51.494Z,69.69
2023-06-07T07:50:56.429Z,68.89
2023-06-07T07:53:59.961Z,68.85
2023-06-07T07:57:03.221Z,68.52
2023-06-07T08:00:07.119Z,67.66
2023-06-07T08:03:16.824Z,68.08
2023-06-07T08:06:20.072Z,66.91
2023-06-07T08:09:23.172Z,67.17
2023-06-07T08:12:26.224Z,66.54
2023-06-07T08:15:29.409Z,65.84
2023-06-07T08:18:32.424Z,66.00
2023-06-07T08:21:36.808Z,65.97
2023-06-07T08:24:39.925Z,66.08
2023-06-07T08:27:43.325Z,66.19
2023-06-07T08:30:48.750Z,65.99
2023-06-07T08:33:52.926Z,65.61
2023-06-07T08:36:56.179Z,65.44
2023-06-07T08:39:59.233Z,64.38
2023-06-07T08:43:02.432Z,64.98
2023-06-07T08:46:06.072Z,64.50
2023-06-07T08:49:12.175Z,63.96
2023-06-07T08:52:17.374Z,64.15
2023-06-07T08:55:21.005Z,64.39
2023-06-07T08:58:25.954Z,63.66
2023-06-07T09:01:36.586Z,63.10
2023-06-07T09:04:42.317Z,63.13
2023-06-07T09:07:45.478Z,62.52
2023-06-07T09:10:48.575Z,62.37
2023-06-07T09:13:52.028Z,61.51
2023-06-07T09:16:56.734Z,60.63
2023-06-07T09:19:59.932Z,59.80
2023-06-07T09:23:10.435Z,60.12
2023-06-07T09:26:14.900Z,60.03
2023-06-07T09:29:20.079Z,60.66
2023-06-07T09:32:25.431Z,60.78
2023-06-07T09:35:29.349Z,60.01
2023-06-07T09:38:32.523Z,59.39
2023-06-07T09:41:35.724Z,58.75
2023-06-07T09:44:39.062Z,59.41
2023-06-07T09:47:46.462Z,59.43
2023-06-07T09:50:57.216Z,59.10
2023-06-07T09:54:02.424Z,59.10
2023-06-07T09:57:08.090Z,59.12
2023-06-07T10:00:18.992Z,59.47
2023-06-07T10:03:22.121Z,60.19
2023-06-07T10:06:25.988Z,59.80
2023-06-07T10:09:31.019Z,60.84
2023-06-07T10:12:39.935Z,61.01
2023-06-07T10:15:46.003Z,61.94
2023-06-07T10:18:52.451Z,61.33
2023-06-07T10:21:58.880Z,61.19
2023-06-07T10:25:13.368Z,61.44
2023-06-07T10:28:59.546Z,60.83
2023-06-07T10:32:17.004Z,61.03
2023-06-07T10:35:21.633Z,61.56
2023-06-07T10:38:25.689Z,60.36
2023-06-07T10:41:30.007Z,60.79
2023-06-07T10:44:33.747Z,62.00
2023-06-07T10:47:37.075Z,60.24
2023-06-07T10:50:48.079Z,59.87
2023-06-07T10:53:51.383Z,58.48
2023-06-07T10:56:54.739Z,58.58
2023-06-07T11:00:31.317Z,58.74
2023-06-07T11:03:34.881Z,58.07
2023-06-07T11:07:17.068Z,57.04
2023-06-07T11:10:20.135Z,57.28
2023-06-07T11:13:23.273Z,57.48
2023-06-07T11:16:27.115Z,56.24
2023-06-07T11:19:56.631Z,55.74
2023-06-07T11:23:35.653Z,55.18
2023-06-07T11:26:39.216Z,54.33
2023-06-07T11:29:44.245Z,54.23
2023-06-07T11:32:47.322Z,53.97
2023-06-07T11:35:51.382Z,53.63
2023-06-07T11:38:57.000Z,54.42
2023-06-07T11:42:00.090Z,53.89
2023-06-07T11:45:03.355Z,54.23
2023-06-07T11:48:07.350Z,54.04
2023-06-07T11:51:10.461Z,53.36
2023-06-07T11:54:13.870Z,53.21
2023-06-07T11:57:17.465Z,53.76
2023-06-07T12:00:24.600Z,52.60
2023-06-07T12:03:28.319Z,51.86
2023-06-07T12:06:31.723Z,51.55
2023-06-07T12:09:43.884Z,50.79
2023-06-07T12:12:47.126Z,51.49
2023-06-07T12:15:57.026Z,51.48
2023-06-07T12:19:00.377Z,50.89
2023-06-07T12:22:05.193Z,50.66
2023-06-07T12:25:13.411Z,52.14
2023-06-07T12:28:17.705Z,52.31
2023-06-07T12:31:23.224Z,51.09
2023-06-07T12:34:31.385Z,50.79
2023-06-07T12:37:38.601Z,50.34
2023-06-07T12:40:42.009Z,50.00
2023-06-07T12:43:47.498Z,51.38
2023-06-07T12:46:50.666Z,51.70
2023-06-07T12:49:53.900Z,52.49
2023-06-07T12:52:57.598Z,51.80
2023-06-07T12:56:00.753Z,51.11
2023-06-07T12:59:04.509Z,51.45
2023-06-07T13:02:07.823Z,52.29
2023-06-07T13:05:12.345Z,52.64
2023-06-07T13:08:15.502Z,51.57
2023-06-07T13:11:19.621Z,51.68
2023-06-07T13:14:22.704Z,50.05
2023-06-07T13:17:26.103Z,48.98
2023-06-07T13:20:29.412Z,49.24
2023-06-07T13:23:32.449Z,48.66
2023-06-07T13:26:35.494Z,47.81
2023-06-07T13:29:39.486Z,46.90
2023-06-07T13:32:42.711Z,47.32
2023-06-07T13:35:46.204Z,46.77
2023-06-07T13:38:49.965Z,46.11
2023-06-07T13:41:53.094Z,46.36
2023-06-07T13:44:56.230Z,46.53
2023-06-07T13:47:59.849Z,46.71
2023-06-07T13:51:05.231Z,46.08
2023-06-07T13:54:08.324Z,46.13
2023-06-07T13:57:11.414Z,46.12
2023-06-07T14:00:15.082Z,45.62
2023-06-07T14:03:21.239Z,45.82
2023-06-07T14:06:24.814Z,44.40
2023-06-07T14:09:28.748Z,44.66
2023-06-07T14:12:31.919Z,44.84
2023-06-07T14:15:35.029Z,45.44
2023-06-07T14:18:38.052Z,44.72
2023-06-07T14:21:41.244Z,44.32
2023-06-07T14:24:44.618Z,44.85
2023-06-07T14:27:47.736Z,44.72
2023-06-07T14:30:51.845Z,45.58
2023-06-07T14:33:54.989Z,44.83
2023-06-07T14:36:57.983Z,45.11
2023-06-07T14:40:01.492Z,44.48
2023-06-07T14:43:04.647Z,44.89
2023-06-07T14:46:07.897Z,45.15
2023-06-07T14:49:11.352Z,44.20
2023-06-07T14:52:14.446Z,44.29
2023-06-07T14:55:17.939Z,44.26
2023-06-07T14:58:21.166Z,45.00
2023-06-07T15:01:26.437Z,44.65
2023-06-07T15:04:29.570Z,44.78
2023-06-07T15:07:32.557Z,44.01
2023-06-07T15:10:35.838Z,44.03
2023-06-07T15:13:39.138Z,44.78
2023-06-07T15:16:42.262Z,45.66
2023-06-07T15:19:45.909Z,45.20
2023-06-07T15:22:49.040Z,44.98
2023-06-07T15:25:52.098Z,45.00
2023-06-07T15:28:58.074Z,44.94
2023-06-07T15:32:02.076Z,45.26
2023-06-07T15:35:05.640Z,45.44
2023-06-07T15:38:08.662Z,45.38
2023-06-07T15:41:15.034Z,45.73
2023-06-07T15:44:18.858Z,46.28
2023-06-07T15:47:21.940Z,46.51
2023-06-07T15:50:25.039Z,46.24
2023-06-07T15:53:28.105Z,47.15
2023-06-07T15:56:31.246Z,47.20
2023-06-07T15:59:36.368Z,47.87
2023-06-07T16:02:39.467Z,47.19
2023-06-07T16:05:42.764Z,46.75
2023-06-07T16:08:45.794Z,47.38
2023-06-07T16:11:49.024Z,47.61
2023-06-07T16:14:52.289Z,47.49
2023-06-07T16:17:55.512Z,47.41
2023-06-07T16:20:58.610Z,47.50
2023-06-07T16:24:03.827Z,48.07
2023-06-07T16:27:07.270Z,48.13
2023-06-07T16:30:10.989Z,48.26
2023-06-07T16:33:14.193Z,48.67
2023-06-07T16:36:18.487Z,48.39
2023-06-07T16:39:21.518Z,48.46
2023-06-07T16:42:24.596Z,48.63
2023-06-07T16:45:27.659Z,49.36
2023-06-07T16:48:30.655Z,49.13
2023-06-07T16:51:34.081Z,49.18
2023-06-07T16:54:37.066Z,49.34
2023-06-07T16:57:40.516Z,49.72
2023-06-07T17:00:43.812Z,49.60
2023-06-07T17:03:46.957Z,49.59
2023-06-07T17:06:50.025Z,50.01
2023-06-07T17:09:53.060Z,50.14
2023-06-07T17:12:56.098Z,50.83
2023-06-07T17:15:59.235Z,51.04
2023-06-07T17:19:03.548Z,51.14
2023-06-07T17:22:07.176Z,51.33
2023-06-07T17:25:10.443Z,51.62
2023-06-07T17:28:13.603Z,51.96
2023-06-07T17:31:16.928Z,52.28
2023-06-07T17:34:20.031Z,52.50
2023-06-07T17:37:23.069Z,53.25
2023-06-07T17:40:26.129Z,52.85
2023-06-07T17:43:29.361Z,53.09
2023-06-07T17:46:35.584Z,53.17
2023-06-07T17:49:38.599Z,53.40
2023-06-07T17:52:41.558Z,54.12
2023-06-07T17:55:46.793Z,54.06
2023-06-07T17:58:50.034Z,54.22
2023-06-07T18:01:55.178Z,54.22
2023-06-07T18:04:58.428Z,53.74
2023-06-07T18:08:01.643Z,53.26
2023-06-07T18:11:04.672Z,53.13
2023-06-07T18:14:07.758Z,52.87
2023-06-07T18:17:11.384Z,52.99
2023-06-07T18:20:14.497Z,53.02
2023-06-07T18:23:17.621Z,53.28
2023-06-07T18:26:22.674Z,53.24
2023-06-07T18:29:26.007Z,53.46
2023-06-07T18:32:29.035Z,53.89
2023-06-07T18:35:32.837Z,54.46
2023-06-07T18:38:36.168Z,54.43
2023-06-07T18:41:39.661Z,54.48
2023-06-07T18:44:42.774Z,54.65
2023-06-07T18:47:46.351Z,55.00
2023-06-07T18:50:49.793Z,55.00
2023-06-07T18:53:54.186Z,55.43
2023-06-07T18:56:58.365Z,55.77
2023-06-07T19:00:01.693Z,55.76
2023-06-07T19:03:05.042Z,56.13
2023-06-07T19:06:10.861Z,56.48
2023-06-07T19:09:15.474Z,56.81
2023-06-07T19:12:18.559Z,56.83
2023-06-07T19:15:22.007Z,56.67
2023-06-07T19:18:25.091Z,56.86
2023-06-07T19:21:32.202Z,56.94
2023-06-07T19:24:43.448Z,57.19
2023-06-07T19:27:46.631Z,57.27
2023-06-07T19:30:49.775Z,57.37
2023-06-07T19:33:53.804Z,57.65
2023-06-07T19:36:56.940Z,57.71
2023-06-07T19:40:05.986Z,58.10
2023-06-07T19:43:09.004Z,58.07
2023-06-07T19:46:12.177Z,58.32
2023-06-07T19:49:15.383Z,58.57
2023-06-07T19:52:19.430Z,58.66
2023-06-07T19:55:22.488Z,59.15
2023-06-07T19:58:25.488Z,59.25
2023-06-07T20:01:30.938Z,59.44
2023-06-07T20:04:34.210Z,59.61
2023-06-07T20:07:37.217Z,60.03
2023-06-07T20:10:40.393Z,60.35
2023-06-07T20:13:43.501Z,60.49
2023-06-07T20:16:46.817Z,60.67
2023-06-07T20:19:49.897Z,60.57
2023-06-07T20:22:53.070Z,60.96
2023-06-07T20:25:57.066Z,60.90
2023-06-07T20:29:02.325Z,61.13
2023-06-07T20:32:06.502Z,61.01
2023-06-07T20:35:09.928Z,61.01
2023-06-07T20:38:13.070Z,61.08
2023-06-07T20:41:16.284Z,61.15
2023-06-07T20:44:19.533Z,61.45
2023-06-07T20:47:22.690Z,61.30
2023-06-07T20:50:26.267Z,61.29
2023-06-07T20:53:29.614Z,61.54
2023-06-07T20:56:33.969Z,61.61
2023-06-07T20:59:44.643Z,61.61
2023-06-07T21:02:47.825Z,61.48
2023-06-07T21:05:50.922Z,61.64
2023-06-07T21:08:53.914Z,61.66
2023-06-07T21:11:56.965Z,61.80
2023-06-07T21:15:00.254Z,61.79
2023-06-07T21:18:03.643Z,61.94
2023-06-07T21:21:06.858Z,62.03
2023-06-07T21:24:10.111Z,62.17
2023-06-07T21:27:13.258Z,62.32
2023-06-07T21:30:16.462Z,62.36
2023-06-07T21:33:20.475Z,62.43
2023-06-07T21:36:23.493Z,62.56
2023-06-07T21:39:26.516Z,62.67
2023-06-07T21:42:29.573Z,62.76
2023-06-07T21:45:32.605Z,62.75
2023-06-07T21:48:40.059Z,62.89
2023-06-07T21:51:43.068Z,62.96
2023-06-07T21:54:47.880Z,63.08
2023-06-07T21:57:51.086Z,63.12
2023-06-07T22:00:54.338Z,63.41
2023-06-07T22:03:57.436Z,63.46
2023-06-07T22:07:00.637Z,63.52
2023-06-07T22:10:04.160Z,63.66
2023-06-07T22:13:07.309Z,63.77
2023-06-07T22:16:10.383Z,63.81
2023-06-07T22:19:15.565Z,63.86
2023-06-07T22:22:18.662Z,63.94
2023-06-07T22:25:39.455Z,64.05
2023-06-07T22:28:45.719Z,63.95
2023-06-07T22:31:49.043Z,63.93
2023-06-07T22:34:54.402Z,63.97
2023-06-07T22:37:58.003Z,64.06
2023-06-07T22:41:01.686Z,64.22
2023-06-07T22:44:05.299Z,64.28
2023-06-07T22:47:08.521Z,64.51
2023-06-07T22:50:11.898Z,64.51
2023-06-07T22:53:15.587Z,64.60
2023-06-07T22:56:18.708Z,64.70
2023-06-07T22:59:23.066Z,64.82
2023-06-07T23:02:27.025Z,64.80
2023-06-07T23:05:30.285Z,64.88
2023-06-07T23:08:33.926Z,64.89
2023-06-07T23:11:38.795Z,64.90
2023-06-07T23:14:41.915Z,64.98
2023-06-07T23:17:45.744Z,64.88
2023-06-07T23:20:49.992Z,64.93
2023-06-07T23:23:53.418Z,65.13
2023-06-07T23:26:59.612Z,65.30
2023-06-07T23:30:02.727Z,65.30
2023-06-07T23:33:07.265Z,65.31
2023-06-07T23:36:10.313Z,65.37
2023-06-07T23:39:13.347Z,65.37
2023-06-07T23:42:17.403Z,65.38
2023-06-07T23:45:22.175Z,65.39
2023-06-07T23:48:26.217Z,65.34
2023-06-07T23:51:29.336Z,65.44
2023-06-07T23:54:32.455Z,65.56
2023-06-07T23:57:35.550Z,65.48
